Terminal Aerodrome Forecast
Issued by NWS

Home | Current Version | Previous Version | Text Only | Print | Product List | Glossary On
Versions: 1 2 3 4 5 6 7 8 9 10 11 12 13 14 15
000
FTUS46 KSEW 291632 AAB
TAFCLM
TAF AMD
KCLM 291632Z 2917/3012 VRB04KT 4SM BR BKN002 OVC070
     FM291800 27004KT 3SM -RA BR BKN010 OVC080
     FM292000 VRB03KT P6SM SCT030 BKN040 OVC050
     FM300000 28008KT P6SM -RA BKN028 OVC040=

USA.gov is the U.S. government's official web portal to all federal, state and local government web resources and services.